Latest Coastal Weather Observations for Cape Grim

IDT60701

Issued at 2:52 pm EDT Tuesday 17 October 2017 (issued every 10 minutes, with the page automatically refreshed every 10 minutes)

About coastal observations | Map of coastal stations | Coastal observations for TAS | Marine services | Other Formats
Station Details ID: 091331 Name: CAPE GRIM Lat: -40.68 Lon: 144.69 Height: 86.0 m
Data from the previous 72 hours. | See also: Recent months at Cape Grim
Date/Time
EDT
Temp
°C
Wind Pressure Rain since
9am
mm
Weather Cloud Vis
km
Sea
Height
m
Swell
Dir  Spd
kts
Gust
kts
hPa Trend Height
m
Period
s
Dir
17/02:30pm 14.5 E 20 23 1022.4 - 0.0 - Partly cloudy - - - - -
17/02:00pm 14.6 ENE 20 24 1022.8 - 0.0 - Cloudy - - - - -
17/01:30pm 14.6 ENE 20 25 1022.8 - 0.0 - Cloudy - - - - -
17/01:00pm 14.3 ENE 23 26 1022.7 - 0.0 - Cloudy - - - - -
17/12:30pm 14.6 ENE 22 26 1022.8 - 0.0 - Cloudy - - - - -
17/12:00pm 14.5 ENE 22 26 1023.1 - 0.0 - Partly cloudy - - - - -
17/11:53am 14.3 ENE 22 26 1023.1 - 0.0 - Partly cloudy - - - - -
17/11:30am 14.9 ENE 23 29 1023.1 - 0.0 - - - - - - -
17/11:00am 14.8 ENE 23 27 1023.1 - 0.0 - - - - - - -
17/10:30am 14.8 ENE 23 28 1023.1 - 0.0 - - - - - - -
17/10:00am 14.0 ENE 23 27 1023.0 - 0.0 - - - - - - -
17/09:34am 13.5 ENE 22 26 1022.9 - 0.0 - Partly cloudy - - - - -
17/09:30am 13.2 ENE 22 27 1022.9 - 0.0 - Partly cloudy - - - - -
17/09:00am 12.1 ENE 24 28 1022.6 - 0.0 - Cloudy - - - - -
17/08:30am 11.9 ENE 21 25 1022.8 - 0.0 - Cloudy - - - - -
17/08:00am 11.6 ENE 23 26 1022.8 - 0.0 - Cloudy - - - - -
17/07:30am 11.7 ENE 21 26 1022.6 - 0.0 - Cloudy - - - - -
17/07:00am 11.5 ENE 23 27 1022.2 - 0.0 - Cloudy - - - - -
17/06:30am 11.5 ENE 22 25 1022.0 - 0.0 - Cloudy - - - - -
17/06:00am 11.5 E 22 26 1021.8 - 0.0 - Cloudy - - - - -
17/05:30am 11.5 ENE 21 25 1021.7 - 0.0 - Cloudy - - - - -
17/05:00am 11.6 E 21 24 1021.7 - 0.0 - Cloudy - - - - -
17/04:30am 11.4 E 21 25 1021.8 - 0.0 - Cloudy - - - - -
17/04:00am 11.8 ENE 21 24 1022.0 - 0.0 - Cloudy - - - - -
17/03:30am 11.9 ENE 20 24 1022.1 - 0.0 - Cloudy - - - - -
17/03:00am 11.7 ENE 18 22 1022.4 - 0.0 - Cloudy - - - - -
17/02:30am 11.5 ENE 21 25 1022.4 - 0.0 - Cloudy - - - - -
17/02:00am 11.2 ENE 21 25 1022.6 - 0.0 - Cloudy - - - - -
17/01:30am 11.1 ENE 20 24 1023.2 - 0.0 - Cloudy - - - - -
17/01:00am 10.9 ENE 22 25 1023.5 - 0.0 - Cloudy - - - - -
17/12:30am 10.5 ENE 22 26 1023.5 - 0.0 - Cloudy - - - - -
17/12:00am 10.2 ENE 23 27 1023.5 - 0.0 - Cloudy - - - - -
 
Date/Time
EDT
Temp
°C
Wind Pressure Rain since
9am
mm
Weather Cloud Vis
km
Sea
Height
m
Swell
Dir  Spd
kts
Gust
kts
hPa Trend Height
m
Period
s
Dir
16/11:30pm 10.1 ENE 23 27 1023.4 - 0.0 - Cloudy - - - - -
16/11:00pm 10.1 ENE 23 27 1023.6 - 0.0 - Cloudy - - - - -
16/10:30pm 9.8 ENE 22 25 1023.9 - 0.0 - Cloudy - - - - -
16/10:00pm 10.3 ENE 21 24 1024.0 - 0.0 - Cloudy - - - - -
16/09:30pm 10.3 ENE 21 25 1024.1 - 0.0 - Cloudy - - - - -
16/09:00pm 10.5 ENE 21 25 1024.0 - 0.0 - Mostly cloudy - - - - -
16/08:30pm 10.4 ENE 22 26 1023.8 - 0.0 - Partly cloudy - - - - -
16/08:00pm 10.8 ENE 21 23 1023.6 - 0.0 - Partly cloudy - - - - -
16/07:30pm 10.9 ENE 21 24 1023.3 - 0.0 - Partly cloudy - - - - -
16/07:00pm 11.2 ENE 21 25 1023.3 - 0.0 - Partly cloudy - - - - -
16/06:30pm 11.8 ENE 19 23 1023.5 - 0.0 - Cloudy - - - - -
16/06:00pm 12.1 ENE 18 21 1023.6 - 0.0 - Mostly cloudy - - - - -
16/05:30pm 12.3 ENE 19 21 1023.5 - 0.0 - Cloudy - - - - -
16/05:00pm 12.2 ENE 17 21 1023.9 - 0.0 - Cloudy - - - - -
16/04:30pm 11.9 ENE 17 21 1024.0 - 0.0 - Cloudy - - - - -
16/04:00pm 12.1 ENE 18 22 1024.1 - 0.0 - Cloudy - - - - -
16/03:30pm 12.1 ENE 19 23 1024.1 - 0.0 - Cloudy - - - - -
16/03:00pm 12.0 ENE 18 21 1024.5 - 0.0 - Cloudy - - - - -
16/02:30pm 12.3 ENE 19 22 1024.7 - 0.0 - Cloudy - - - - -
16/02:00pm 12.9 ENE 19 23 1024.8 - 0.0 - Cloudy - - - - -
16/01:30pm 13.2 ENE 19 23 1025.1 - 0.0 - Cloudy - - - - -
16/01:00pm 12.5 ENE 19 23 1025.4 - 0.0 - Cloudy - - - - -
16/12:30pm 12.5 NE 19 23 1025.8 - 0.0 - Cloudy - - - - -
16/12:00pm 11.3 ENE 19 23 1025.9 - 0.0 - Cloudy - - - - -
16/11:30am 12.3 ENE 18 24 1026.1 - 0.0 - Cloudy - - - - -
16/11:00am 11.5 ENE 19 23 1026.3 - 0.0 - Cloudy - - - - -
16/10:30am 11.0 ENE 18 21 1026.3 - 0.0 - Cloudy - - - - -
16/10:00am 10.7 ENE 18 22 1026.2 - 0.0 - Cloudy - - - - -
16/09:30am 11.0 E 19 23 1026.0 - 0.0 - Cloudy - - - - -
16/09:00am 10.7 E 20 23 1025.6 - 0.4 - Cloudy - - - - -
16/08:30am 10.8 E 20 23 1025.6 - 0.4 - Cloudy - - - - -
16/08:00am 10.6 E 19 23 1025.4 - 0.4 - Cloudy - - - - -
16/07:30am 10.2 E 18 21 1025.2 - 0.4 - Cloudy - - - - -
16/07:00am 10.2 E 15 18 1025.1 - 0.4 - Cloudy - - - - -
16/06:30am 10.2 E 13 17 1024.8 - 0.4 - Cloudy - - - - -
16/06:00am 10.0 E 13 17 1024.5 - 0.4 Rain Cloudy - - - - -
16/05:30am 9.7 E 8 10 1024.6 - 0.2 - Cloudy - - - - -
16/05:00am 9.3 ESE 4 5 1024.7 - 0.2 - Cloudy - - - - -
16/04:30am 9.0 ESE 5 6 1024.7 - 0.2 - Partly cloudy - - - - -
16/04:00am 9.7 SSW 7 9 1024.7 - 0.2 - Cloudy - - - - -
16/03:30am 9.7 SSW 10 12 1024.6 - 0.2 - Cloudy - - - - -
16/03:00am 9.6 SSW 13 16 1024.7 - 0.2 - Cloudy - - - - -
16/02:30am 9.8 SSW 12 15 1024.8 - 0.2 - Cloudy - - - - -
16/02:00am 9.9 SSW 12 16 1025.0 - 0.2 - Cloudy - - - - -
16/01:30am 10.0 SSW 15 19 1024.8 - 0.2 - Cloudy - - - - -
16/01:00am 9.9 SW 17 21 1024.8 - 0.2 - Cloudy - - - - -
16/12:30am 10.0 SW 15 21 1024.9 - 0.2 - Cloudy - - - - -
16/12:00am 10.1 SW 17 20 1025.0 - 0.2 - Cloudy - - - - -
 
Date/Time
EDT
Temp
°C
Wind Pressure Rain since
9am
mm
Weather Cloud Vis
km
Sea
Height
m
Swell
Dir  Spd
kts
Gust
kts
hPa Trend Height
m
Period
s
Dir
15/11:30pm 10.0 SW 16 19 1025.2 - 0.2 - Cloudy - - - - -
15/11:00pm 9.9 SW 17 21 1025.3 - 0.2 - Cloudy - - - - -
15/10:30pm 9.8 SW 16 20 1025.3 - 0.0 - Cloudy - - - - -
15/10:00pm 10.0 SW 16 19 1025.3 - 0.0 - Cloudy - - - - -
15/09:30pm 10.2 SW 14 19 1025.2 - 0.0 - Cloudy - - - - -
15/09:00pm 10.4 SW 15 19 1025.2 - 0.0 - Cloudy - - - - -
15/08:30pm 10.3 SW 14 19 1024.9 - 0.0 - Cloudy - - - - -
15/08:00pm 10.5 SW 15 19 1024.8 - 0.0 - Cloudy - - - - -
15/07:30pm 10.6 SW 16 20 1024.6 - 0.0 - Cloudy - - - - -
15/07:00pm 10.6 SW 15 20 1024.5 - 0.0 - Cloudy - - - - -
15/06:30pm 10.9 SW 15 20 1024.6 - 0.0 - Cloudy - - - - -
15/06:00pm 10.8 SW 15 20 1024.6 - 0.0 - Cloudy - - - - -
15/05:30pm 11.3 SW 16 20 1024.5 - 0.0 - Cloudy - - - - -
15/05:00pm 11.7 SW 15 21 1024.5 - 0.0 - Cloudy - - - - -
15/04:30pm 12.0 SW 17 21 1024.5 - 0.0 - Cloudy - - - - -
15/04:00pm 12.0 SW 18 21 1024.6 - 0.0 - Partly cloudy - - - - -
15/03:30pm 12.1 SW 16 20 1024.7 - 0.0 - Cloudy - - - - -
15/03:00pm 12.0 SW 14 18 1024.8 - 0.0 - Cloudy - - - - -
15/02:30pm 12.0 SW 10 17 1025.0 - 0.0 - Cloudy - - - - -
15/02:00pm 11.8 SW 12 16 1025.3 - 0.0 - Cloudy - - - - -
15/01:30pm 12.3 SW 13 16 1025.2 - 0.0 - Partly cloudy - - - - -
15/01:00pm 12.1 SW 13 18 1025.2 - 0.0 - Partly cloudy - - - - -
15/12:30pm 12.0 SW 9 13 1025.4 - 0.0 - Partly cloudy - - - - -
15/12:00pm 12.1 SW 9 14 1025.6 - 0.0 - Cloudy - - - - -
15/11:30am 11.6 SW 11 15 1025.7 - 0.0 - Cloudy - - - - -
15/11:00am 11.3 SW 11 16 1025.8 - 0.0 - Partly cloudy - - - - -
15/10:30am 11.8 WSW 8 13 1025.8 - 0.0 - Partly cloudy - - - - -
15/10:00am 11.5 WSW 8 14 1025.8 - 0.0 - Cloudy - - - - -
15/09:30am 11.0 WSW 10 14 1025.6 - 0.0 - Cloudy - - - - -
15/09:00am 10.8 W 11 18 1025.3 - 0.2 - Cloudy - - - - -
15/08:30am 10.8 W 11 17 1025.1 - 0.2 - Cloudy - - - - -
15/08:00am 10.9 WSW 9 15 1024.6 - 0.2 - Cloudy - - - - -
15/07:30am 10.7 W 10 15 1024.3 - 0.2 - Cloudy - - - - -
15/07:00am 10.7 W 10 14 1023.8 - 0.2 - Cloudy - - - - -
15/06:30am 10.5 W 10 13 1023.3 - 0.2 - Partly cloudy - - - - -
15/06:00am 10.3 WSW 8 16 1023.4 - 0.2 - Cloudy - - - - -
15/05:30am 10.8 W 9 13 1023.3 - 0.2 - Partly cloudy - - - - -
15/05:00am 10.7 W 11 17 1023.3 - 0.2 - Partly cloudy - - - - -
15/04:30am 10.6 W 10 18 1023.4 - 0.0 - Cloudy - - - - -
15/04:00am 10.5 W 9 14 1023.4 - 0.0 - Partly cloudy - - - - -
15/03:30am 10.8 W 9 14 1023.4 - 0.0 - Partly cloudy - - - - -
15/03:00am 10.8 W 8 11 1023.6 - 0.0 - Cloudy - - - - -
15/02:30am 10.9 WSW 8 13 1023.6 - 0.0 - Partly cloudy - - - - -
15/02:00am 11.0 WSW 8 16 1023.9 - 0.0 - Cloudy - - - - -
15/01:30am 11.2 W 10 15 1024.1 - 0.0 - Cloudy - - - - -
15/01:00am 11.3 W 9 15 1024.2 - 0.0 - Cloudy - - - - -
15/12:30am 11.3 W 10 14 1024.1 - 0.0 - Cloudy - - - - -
15/12:00am 11.3 W 10 15 1024.2 - 0.0 - Cloudy - - - - -
 
Date/Time
EDT
Temp
°C
Wind Pressure Rain since
9am
mm
Weather Cloud Vis
km
Sea
Height
m
Swell
Dir  Spd
kts
Gust
kts
hPa Trend Height
m
Period
s
Dir
14/11:30pm 11.4 W 7 14 1024.0 - 0.0 - Cloudy - - - - -
14/11:00pm 11.3 WSW 9 17 1024.1 - 0.0 - Cloudy - - - - -
14/10:53pm 11.4 WSW 10 18 1024.1 - 0.0 - Cloudy - - - - -
14/10:30pm 11.3 W 10 17 1024.2 - 0.0 - Cloudy - - - - -
14/10:00pm 11.3 WSW 10 16 1024.4 - 0.0 - Cloudy - - - - -
14/09:30pm 11.4 WSW 8 13 1024.5 - 0.0 - Partly cloudy - - - - -
14/09:00pm 11.5 W 9 15 1024.4 - 0.0 - Mostly cloudy - - - - -
14/08:30pm 11.5 WSW 9 14 1024.4 - 0.0 - Partly cloudy - - - - -
14/08:00pm 11.4 W 8 14 1024.3 - 0.0 - Partly cloudy - - - - -
14/07:30pm 11.5 WSW 10 17 1024.2 - 0.0 - Partly cloudy - - - - -
14/07:00pm 11.6 WSW 9 14 1024.0 - 0.0 - Partly cloudy - - - - -
14/06:30pm 11.8 WSW 7 13 1023.7 - 0.0 - Partly cloudy - - - - -
14/06:00pm 12.0 WSW 8 14 1023.8 - 0.0 - - - - - - -
14/05:30pm 11.9 WSW 9 15 1023.8 - 0.0 - - - - - - -
14/05:00pm 12.0 W 9 15 1023.8 - 0.0 - - - - - - -
14/04:30pm 12.3 W 10 16 1023.7 - 0.0 - - - - - - -
14/04:00pm 12.2 W 11 17 1023.7 - 0.0 - - - - - - -
14/03:30pm 12.5 W 9 15 1023.9 - 0.0 - - - - - - -
14/03:00pm 12.3 WSW 10 17 1024.0 - 0.0 - Mostly clear - - - - -

Other Formats:

Comma delimited format used in spreadsheet applications
http://www.bom.gov.au/fwo/IDT60701/IDT60701.95954.axf

JavaScript Object Notation format (JSON) in row-major order
http://www.bom.gov.au/fwo/IDT60701/IDT60701.95954.json